createdAt,value
2018-01-13T00:00:04.360Z,0
2018-01-13T00:01:05.962Z,0
2018-01-13T00:02:07.574Z,0
2018-01-13T00:03:09.179Z,0
2018-01-13T00:04:10.783Z,0
2018-01-13T00:05:12.389Z,0
2018-01-13T00:06:14.000Z,0
2018-01-13T00:07:15.607Z,0
2018-01-13T00:08:18.287Z,0
2018-01-13T00:09:20.534Z,0
2018-01-13T00:10:22.570Z,0
2018-01-13T00:11:28.802Z,0
2018-01-13T00:12:30.632Z,0
2018-01-13T00:13:32.960Z,0
2018-01-13T00:14:34.727Z,0
2018-01-13T00:15:36.376Z,0
2018-01-13T00:16:38.109Z,0
2018-01-13T00:17:40.676Z,0
2018-01-13T00:18:42.245Z,0
2018-01-13T00:19:43.852Z,0
2018-01-13T00:20:45.832Z,0
2018-01-13T00:21:47.435Z,0
2018-01-13T00:22:50.638Z,0
2018-01-13T00:23:53.968Z,0
2018-01-13T00:24:56.709Z,0
2018-01-13T00:25:59.548Z,0
2018-01-13T00:27:02.851Z,0
2018-01-13T00:28:05.630Z,0
2018-01-13T00:29:08.513Z,0
2018-01-13T00:30:10.995Z,0
2018-01-13T00:31:13.458Z,0
2018-01-13T00:32:17.498Z,0
2018-01-13T00:33:19.960Z,0
2018-01-13T00:34:23.045Z,0
2018-01-13T00:35:25.988Z,0
2018-01-13T00:36:28.731Z,0
2018-01-13T00:37:31.971Z,0
2018-01-13T00:38:34.176Z,0
2018-01-13T00:39:35.748Z,0
2018-01-13T00:40:37.357Z,0
2018-01-13T00:41:40.556Z,0
2018-01-13T00:42:43.893Z,0
2018-01-13T00:43:45.842Z,0
2018-01-13T00:44:47.848Z,0
2018-01-13T00:45:49.842Z,0
2018-01-13T00:46:51.720Z,0
2018-01-13T00:47:54.879Z,0
2018-01-13T00:48:57.893Z,0
2018-01-13T00:50:01.102Z,0
2018-01-13T00:51:03.568Z,0
2018-01-13T00:52:05.923Z,0
2018-01-13T00:53:09.049Z,0
2018-01-13T00:54:11.895Z,0
2018-01-13T00:55:14.960Z,0
2018-01-13T00:56:17.128Z,0
2018-01-13T00:57:18.753Z,0
2018-01-13T00:58:20.361Z,0
2018-01-13T00:59:21.969Z,0
2018-01-13T01:00:23.577Z,0
2018-01-13T01:01:27.256Z,0
2018-01-13T01:02:28.963Z,0
2018-01-13T01:03:32.148Z,0
2018-01-13T01:04:33.891Z,0
2018-01-13T01:05:35.944Z,0
2018-01-13T01:06:39.889Z,0
2018-01-13T01:07:42.070Z,0
2018-01-13T01:08:43.676Z,0
2018-01-13T01:09:46.035Z,0
2018-01-13T01:10:47.599Z,0
2018-01-13T01:11:49.210Z,0
2018-01-13T01:12:52.584Z,0
2018-01-13T01:13:55.207Z,0
2018-01-13T01:14:57.673Z,0
2018-01-13T01:16:00.423Z,0
2018-01-13T01:17:02.045Z,0
2018-01-13T01:18:03.640Z,0
2018-01-13T01:19:05.244Z,0
2018-01-13T01:20:08.724Z,0
2018-01-13T01:21:12.034Z,0
2018-01-13T01:22:14.688Z,0
2018-01-13T01:23:18.057Z,0
2018-01-13T01:24:20.358Z,0
2018-01-13T01:25:22.874Z,0
2018-01-13T01:26:24.444Z,0
2018-01-13T01:27:26.973Z,0
2018-01-13T01:28:29.481Z,0
2018-01-13T01:29:31.420Z,0
2018-01-13T01:30:34.461Z,0
2018-01-13T01:31:36.056Z,0
2018-01-13T01:32:38.084Z,0
2018-01-13T01:33:41.570Z,0
2018-01-13T01:34:43.143Z,0
2018-01-13T01:35:44.811Z,0
2018-01-13T01:36:48.551Z,0
2018-01-13T01:37:50.123Z,0
2018-01-13T01:38:51.731Z,0
2018-01-13T01:39:54.694Z,0
2018-01-13T01:40:57.886Z,0
2018-01-13T01:42:00.332Z,0
2018-01-13T01:43:03.528Z,0
2018-01-13T01:44:06.190Z,0
2018-01-13T01:45:08.164Z,0
2018-01-13T01:46:09.876Z,0
2018-01-13T01:47:13.516Z,0
2018-01-13T01:48:15.519Z,0
2018-01-13T01:49:18.190Z,0
2018-01-13T01:50:19.770Z,0
2018-01-13T01:51:21.379Z,0
2018-01-13T01:52:22.982Z,0
2018-01-13T01:53:24.593Z,0
2018-01-13T01:54:26.201Z,0
2018-01-13T01:55:27.811Z,0
2018-01-13T01:56:29.416Z,0
2018-01-13T01:57:31.024Z,0
2018-01-13T01:58:32.624Z,0
2018-01-13T01:59:34.235Z,0
2018-01-13T02:00:35.837Z,0
2018-01-13T02:01:37.449Z,0
2018-01-13T02:02:39.054Z,0
2018-01-13T02:03:40.660Z,0
2018-01-13T02:04:42.263Z,0
2018-01-13T02:05:43.874Z,0
2018-01-13T02:06:45.473Z,0
2018-01-13T02:07:47.084Z,0
2018-01-13T02:08:48.691Z,0
2018-01-13T02:09:50.300Z,0
2018-01-13T02:10:51.909Z,0
2018-01-13T02:11:53.515Z,0
2018-01-13T02:12:55.117Z,0
2018-01-13T02:13:56.722Z,0
2018-01-13T02:14:58.332Z,0
2018-01-13T02:15:59.940Z,0
2018-01-13T02:17:01.544Z,0
2018-01-13T02:18:03.150Z,0
2018-01-13T02:19:04.756Z,0
2018-01-13T02:20:06.359Z,0
2018-01-13T02:21:07.964Z,0
2018-01-13T02:22:09.575Z,0
2018-01-13T02:23:11.179Z,0
2018-01-13T02:24:12.785Z,0
2018-01-13T02:25:14.395Z,0
2018-01-13T02:26:16.001Z,0
2018-01-13T02:27:17.607Z,0
2018-01-13T02:28:19.209Z,0
2018-01-13T02:29:20.819Z,0
2018-01-13T02:30:22.423Z,0
2018-01-13T02:31:24.049Z,0
2018-01-13T02:32:25.639Z,0
2018-01-13T02:33:27.245Z,0
2018-01-13T02:34:28.845Z,0
2018-01-13T02:35:30.453Z,0
2018-01-13T02:36:32.056Z,0
2018-01-13T02:37:33.668Z,0
2018-01-13T02:38:35.273Z,0
2018-01-13T02:39:36.882Z,0
2018-01-13T02:40:38.485Z,0
2018-01-13T02:41:40.094Z,0
2018-01-13T02:42:41.695Z,0
2018-01-13T02:43:43.306Z,0
2018-01-13T02:44:44.914Z,0
2018-01-13T02:45:46.516Z,0
2018-01-13T02:46:48.123Z,0
2018-01-13T02:47:49.731Z,0
2018-01-13T02:48:51.331Z,0
2018-01-13T02:49:52.942Z,0
2018-01-13T02:50:54.546Z,0
2018-01-13T02:51:56.157Z,0
2018-01-13T02:52:57.762Z,0
2018-01-13T02:53:59.370Z,0
2018-01-13T02:55:00.972Z,0
2018-01-13T02:56:02.581Z,0
2018-01-13T02:57:04.184Z,0
2018-01-13T02:58:05.795Z,0
2018-01-13T02:59:07.399Z,0
2018-01-13T03:00:09.009Z,0
2018-01-13T03:01:10.613Z,0
2018-01-13T03:02:12.222Z,0
2018-01-13T03:03:13.828Z,0
2018-01-13T03:04:15.431Z,0
2018-01-13T03:05:17.042Z,0
2018-01-13T03:06:18.644Z,0
2018-01-13T03:07:20.256Z,0
2018-01-13T03:08:21.873Z,0
2018-01-13T03:09:23.466Z,0
2018-01-13T03:10:25.067Z,0
2018-01-13T03:11:26.676Z,0
2018-01-13T03:12:28.279Z,0
2018-01-13T03:13:29.895Z,0
2018-01-13T03:14:31.495Z,0
2018-01-13T03:15:33.104Z,0
2018-01-13T03:16:34.706Z,0
2018-01-13T03:17:36.315Z,0
2018-01-13T03:18:37.919Z,0
2018-01-13T03:19:39.528Z,0
2018-01-13T03:20:41.131Z,0
2018-01-13T03:21:42.737Z,0
2018-01-13T03:22:44.347Z,0
2018-01-13T03:23:45.949Z,0
2018-01-13T03:24:47.556Z,0
2018-01-13T03:25:49.161Z,0
2018-01-13T03:26:50.771Z,0
2018-01-13T03:27:52.379Z,0
2018-01-13T03:28:53.981Z,0
2018-01-13T03:29:55.588Z,0
2018-01-13T03:30:57.195Z,0
2018-01-13T03:31:58.801Z,0
2018-01-13T03:33:00.406Z,0
2018-01-13T03:34:02.010Z,0
2018-01-13T03:35:03.619Z,0
2018-01-13T03:36:05.223Z,0
2018-01-13T03:37:06.836Z,0
2018-01-13T03:38:08.440Z,0
2018-01-13T03:39:10.043Z,0
2018-01-13T03:40:11.652Z,0
2018-01-13T03:41:13.255Z,0
2018-01-13T03:42:14.867Z,0
2018-01-13T03:43:16.469Z,0
2018-01-13T03:44:18.074Z,0
2018-01-13T03:45:19.682Z,0
2018-01-13T03:46:21.289Z,0
2018-01-13T03:47:22.892Z,0
2018-01-13T03:48:24.497Z,0
2018-01-13T03:49:26.113Z,0
2018-01-13T03:50:27.712Z,0
2018-01-13T03:51:29.321Z,0
2018-01-13T03:52:30.927Z,0
2018-01-13T03:53:32.531Z,0
2018-01-13T03:54:34.134Z,0
2018-01-13T03:55:35.745Z,0
2018-01-13T03:56:37.352Z,0
2018-01-13T03:57:38.954Z,0
2018-01-13T03:58:40.561Z,0
2018-01-13T03:59:42.169Z,0
2018-01-13T04:00:43.772Z,0
2018-01-13T04:01:45.380Z,0
2018-01-13T04:02:46.983Z,0
2018-01-13T04:03:48.592Z,0
2018-01-13T04:04:50.197Z,0
2018-01-13T04:05:51.808Z,0
2018-01-13T04:06:53.410Z,0
2018-01-13T04:07:55.019Z,0
2018-01-13T04:08:56.621Z,0
2018-01-13T04:09:58.230Z,0
2018-01-13T04:10:59.833Z,0
2018-01-13T04:12:01.444Z,0
2018-01-13T04:13:03.046Z,0
2018-01-13T04:14:04.655Z,0
2018-01-13T04:15:06.262Z,0
2018-01-13T04:16:07.865Z,0
2018-01-13T04:17:09.474Z,0
2018-01-13T04:18:11.077Z,0
2018-01-13T04:19:12.688Z,0
2018-01-13T04:20:14.294Z,0
2018-01-13T04:21:15.900Z,0
2018-01-13T04:22:17.503Z,0
2018-01-13T04:23:19.112Z,0
2018-01-13T04:24:20.716Z,0
2018-01-13T04:25:22.326Z,0
2018-01-13T04:26:23.931Z,0
2018-01-13T04:27:25.542Z,0
2018-01-13T04:28:27.142Z,0
2018-01-13T04:29:28.748Z,0
2018-01-13T04:30:30.356Z,0
2018-01-13T04:31:31.960Z,0
2018-01-13T04:32:33.568Z,0
2018-01-13T04:33:35.176Z,0
2018-01-13T04:34:36.780Z,0
2018-01-13T04:35:38.383Z,0
2018-01-13T04:36:39.992Z,0
2018-01-13T04:37:41.600Z,0
2018-01-13T04:38:43.203Z,0
2018-01-13T04:39:44.810Z,0
2018-01-13T04:40:46.418Z,0
2018-01-13T04:41:48.027Z,0
2018-01-13T04:42:49.629Z,0
2018-01-13T04:43:51.232Z,0
2018-01-13T04:44:52.840Z,0
2018-01-13T04:45:54.449Z,0
2018-01-13T04:46:56.051Z,0
2018-01-13T04:47:57.663Z,0
2018-01-13T04:48:59.266Z,0
2018-01-13T04:50:00.868Z,0
2018-01-13T04:51:02.480Z,0
2018-01-13T04:52:04.085Z,0
2018-01-13T04:53:05.690Z,0
2018-01-13T04:54:07.293Z,0
2018-01-13T04:55:08.905Z,0
2018-01-13T04:56:10.513Z,0
2018-01-13T04:57:12.114Z,0
2018-01-13T04:58:13.717Z,0
2018-01-13T04:59:15.319Z,0
2018-01-13T05:00:16.926Z,0
2018-01-13T05:01:18.530Z,0
2018-01-13T05:02:20.145Z,0
2018-01-13T05:03:21.747Z,0
2018-01-13T05:04:23.356Z,0
2018-01-13T05:05:24.960Z,0
2018-01-13T05:06:26.570Z,0
2018-01-13T05:07:28.173Z,0
2018-01-13T05:08:29.782Z,0
2018-01-13T05:09:31.389Z,0
2018-01-13T05:10:32.997Z,0
2018-01-13T05:11:34.598Z,0
2018-01-13T05:12:36.203Z,0
2018-01-13T05:13:37.809Z,0
2018-01-13T05:14:39.418Z,0
2018-01-13T05:15:41.024Z,0
2018-01-13T05:16:42.633Z,0
2018-01-13T05:17:44.243Z,0
2018-01-13T05:18:45.842Z,0
2018-01-13T05:19:47.451Z,0
2018-01-13T05:20:49.052Z,0
2018-01-13T05:21:50.662Z,0
2018-01-13T05:22:52.264Z,0
2018-01-13T05:23:53.875Z,0
2018-01-13T05:24:55.478Z,0
2018-01-13T05:25:57.087Z,0
2018-01-13T05:26:58.689Z,0
2018-01-13T05:28:00.296Z,0
2018-01-13T05:29:01.942Z,0
2018-01-13T05:30:03.507Z,0
2018-01-13T05:31:05.110Z,0
2018-01-13T05:32:06.716Z,0
2018-01-13T05:33:08.326Z,0
2018-01-13T05:34:09.978Z,0
2018-01-13T05:35:11.540Z,0
2018-01-13T05:36:13.148Z,0
2018-01-13T05:37:14.749Z,0
2018-01-13T05:38:16.359Z,0
2018-01-13T05:39:17.966Z,0
2018-01-13T05:40:19.565Z,0
2018-01-13T05:41:21.172Z,0
2018-01-13T05:42:22.779Z,0
2018-01-13T05:43:24.387Z,0
2018-01-13T05:44:25.991Z,0
2018-01-13T05:45:27.601Z,0
2018-01-13T05:46:29.206Z,0
2018-01-13T05:47:30.812Z,0
2018-01-13T05:48:32.419Z,0
2018-01-13T05:49:34.023Z,0
2018-01-13T05:50:35.626Z,0
2018-01-13T05:51:37.233Z,0
2018-01-13T05:52:38.845Z,0
2018-01-13T05:53:40.454Z,0
2018-01-13T05:54:42.055Z,0
2018-01-13T05:55:43.658Z,0
2018-01-13T05:56:45.266Z,0
2018-01-13T05:57:46.874Z,0
2018-01-13T05:58:48.478Z,0
2018-01-13T05:59:50.083Z,0
2018-01-13T06:00:51.695Z,0
2018-01-13T06:01:53.300Z,0
2018-01-13T06:02:54.909Z,0
2018-01-13T06:03:56.508Z,0
2018-01-13T06:04:58.111Z,0
2018-01-13T06:05:59.722Z,0
2018-01-13T06:07:01.329Z,0
2018-01-13T06:08:02.933Z,0
2018-01-13T06:09:04.540Z,0
2018-01-13T06:10:06.148Z,0
2018-01-13T06:11:07.748Z,0
2018-01-13T06:12:09.360Z,0
2018-01-13T06:13:10.964Z,0
2018-01-13T06:14:12.575Z,0
2018-01-13T06:15:14.179Z,0
2018-01-13T06:16:15.785Z,0
2018-01-13T06:17:17.390Z,0
2018-01-13T06:18:18.991Z,0
2018-01-13T06:19:20.601Z,0
2018-01-13T06:20:22.205Z,0
2018-01-13T06:21:23.811Z,0
2018-01-13T06:22:25.419Z,0
2018-01-13T06:23:27.022Z,0
2018-01-13T06:24:28.627Z,0
2018-01-13T06:25:30.236Z,0
2018-01-13T06:26:31.840Z,0
2018-01-13T06:27:33.450Z,0
2018-01-13T06:28:35.053Z,0
2018-01-13T06:29:36.663Z,0
2018-01-13T06:30:38.267Z,0
2018-01-13T06:31:39.874Z,0
2018-01-13T06:32:41.475Z,0
2018-01-13T06:33:43.085Z,0
2018-01-13T06:34:44.696Z,0
2018-01-13T06:35:46.298Z,0
2018-01-13T06:36:47.904Z,0
2018-01-13T06:37:49.512Z,0
2018-01-13T06:38:51.120Z,0
2018-01-13T06:39:52.726Z,0
2018-01-13T06:40:54.333Z,0
2018-01-13T06:41:55.942Z,0
2018-01-13T06:42:57.545Z,0
2018-01-13T06:43:59.155Z,0
2018-01-13T06:45:00.760Z,0
2018-01-13T06:46:02.362Z,0
2018-01-13T06:47:03.965Z,0
2018-01-13T06:48:05.574Z,0
2018-01-13T06:49:07.182Z,0
2018-01-13T06:50:08.784Z,0
2018-01-13T06:51:10.395Z,0
2018-01-13T06:52:11.997Z,0
2018-01-13T06:53:13.603Z,0
2018-01-13T06:54:15.206Z,0
2018-01-13T06:55:16.816Z,0
2018-01-13T06:56:18.424Z,0
2018-01-13T06:57:20.027Z,0
2018-01-13T06:58:21.632Z,0
2018-01-13T06:59:23.240Z,0
2018-01-13T07:00:24.841Z,0
2018-01-13T07:01:26.448Z,0
2018-01-13T07:02:28.057Z,0
2018-01-13T07:03:29.666Z,0
2018-01-13T07:04:31.269Z,0
2018-01-13T07:05:32.880Z,0
2018-01-13T07:06:34.487Z,0
2018-01-13T07:07:36.092Z,0
2018-01-13T07:08:37.700Z,0
2018-01-13T07:09:39.305Z,0
2018-01-13T07:10:40.909Z,0
2018-01-13T07:11:42.518Z,0
2018-01-13T07:12:44.124Z,0
2018-01-13T07:13:45.732Z,0
2018-01-13T07:14:47.336Z,0
2018-01-13T07:15:48.938Z,0
2018-01-13T07:16:50.555Z,0
2018-01-13T07:17:52.159Z,0
2018-01-13T07:18:53.766Z,0
2018-01-13T07:19:55.373Z,0
2018-01-13T07:20:56.983Z,0
2018-01-13T07:21:58.592Z,0
2018-01-13T07:23:00.195Z,0
2018-01-13T07:24:01.800Z,0
2018-01-13T07:25:03.415Z,0
2018-01-13T07:26:05.025Z,0
2018-01-13T07:27:06.629Z,5
2018-01-13T07:28:08.234Z,5
2018-01-13T07:29:09.841Z,5
2018-01-13T07:30:11.449Z,5
2018-01-13T07:31:13.054Z,5
2018-01-13T07:32:14.665Z,5
2018-01-13T07:33:16.269Z,5
2018-01-13T07:34:17.882Z,5
2018-01-13T07:35:19.492Z,5
2018-01-13T07:36:21.100Z,5
2018-01-13T07:37:22.706Z,5
2018-01-13T07:38:24.317Z,5
2018-01-13T07:39:25.927Z,11
2018-01-13T07:40:27.535Z,11
2018-01-13T07:41:29.149Z,11
2018-01-13T07:42:30.760Z,11
2018-01-13T07:43:32.368Z,11
2018-01-13T07:44:33.972Z,5
2018-01-13T07:45:35.584Z,5
2018-01-13T07:46:37.193Z,5
2018-01-13T07:47:38.811Z,5
2018-01-13T07:48:40.412Z,5
2018-01-13T07:49:42.023Z,11
2018-01-13T07:50:43.631Z,11
2018-01-13T07:51:45.242Z,11
2018-01-13T07:52:46.849Z,11
2018-01-13T07:53:48.460Z,11
2018-01-13T07:54:50.070Z,11
2018-01-13T07:55:51.685Z,11
2018-01-13T07:56:53.291Z,11
2018-01-13T07:57:54.902Z,11
2018-01-13T07:58:56.509Z,11
2018-01-13T07:59:58.121Z,11
2018-01-13T08:00:59.730Z,11
2018-01-13T08:02:01.343Z,16
2018-01-13T08:03:02.951Z,16
2018-01-13T08:04:04.562Z,16
2018-01-13T08:05:06.173Z,16
2018-01-13T08:06:07.778Z,16
2018-01-13T08:07:09.391Z,16
2018-01-13T08:08:11.000Z,22
2018-01-13T08:09:12.614Z,22
2018-01-13T08:10:14.223Z,22
2018-01-13T08:11:15.834Z,22
2018-01-13T08:12:17.439Z,22
2018-01-13T08:13:19.050Z,22
2018-01-13T08:14:20.963Z,22
2018-01-13T08:15:22.585Z,28
2018-01-13T08:16:24.188Z,28
2018-01-13T08:17:25.798Z,22
2018-01-13T08:18:27.410Z,28
2018-01-13T08:19:29.015Z,22
2018-01-13T08:20:30.629Z,22
2018-01-13T08:21:32.237Z,28
2018-01-13T08:22:33.849Z,28
2018-01-13T08:23:35.462Z,33
2018-01-13T08:24:37.238Z,33
2018-01-13T08:25:38.859Z,33
2018-01-13T08:26:40.482Z,39
2018-01-13T08:27:44.719Z,39
2018-01-13T08:28:48.685Z,39
2018-01-13T08:29:52.793Z,33
2018-01-13T08:30:54.625Z,33
2018-01-13T08:31:56.846Z,33
2018-01-13T08:33:04.769Z,33
2018-01-13T08:34:14.018Z,39
2018-01-13T08:35:17.853Z,39
2018-01-13T08:36:29.895Z,45
2018-01-13T08:37:39.994Z,50
2018-01-13T08:38:51.232Z,56
2018-01-13T08:39:59.831Z,50
2018-01-13T08:41:02.006Z,56
2018-01-13T08:42:04.317Z,50
2018-01-13T08:43:08.514Z,50
2018-01-13T08:44:11.726Z,50
2018-01-13T08:45:13.682Z,61
2018-01-13T08:46:15.887Z,67
2018-01-13T08:47:18.263Z,67
2018-01-13T08:48:20.810Z,67
2018-01-13T08:49:22.417Z,61
2018-01-13T08:50:24.033Z,56
2018-01-13T08:51:25.641Z,61
2018-01-13T08:52:27.255Z,61
2018-01-13T08:53:28.880Z,61
2018-01-13T08:54:30.495Z,61
2018-01-13T08:55:32.104Z,61
2018-01-13T08:56:33.715Z,56
2018-01-13T08:57:35.318Z,56
2018-01-13T08:58:36.932Z,61
2018-01-13T08:59:38.545Z,56
2018-01-13T09:00:40.160Z,56
2018-01-13T09:01:41.774Z,61
2018-01-13T09:02:43.380Z,67
2018-01-13T09:03:44.985Z,73
2018-01-13T09:04:46.666Z,78
2018-01-13T09:05:48.226Z,78
2018-01-13T09:06:49.833Z,78
2018-01-13T09:07:51.451Z,78
2018-01-13T09:08:53.061Z,84
2018-01-13T09:09:54.675Z,90
2018-01-13T09:10:56.282Z,95
2018-01-13T09:11:57.894Z,95
2018-01-13T09:12:59.532Z,90
2018-01-13T09:14:01.144Z,90
2018-01-13T09:15:02.756Z,90
2018-01-13T09:16:04.370Z,95
2018-01-13T09:17:05.979Z,90
2018-01-13T09:18:08.438Z,95
2018-01-13T09:19:10.047Z,101
2018-01-13T09:20:11.663Z,101
2018-01-13T09:21:13.270Z,101
2018-01-13T09:22:14.891Z,106
2018-01-13T09:23:16.506Z,106
2018-01-13T09:24:18.120Z,118
2018-01-13T09:25:19.733Z,118
2018-01-13T09:26:21.346Z,118
2018-01-13T09:27:22.957Z,123
2018-01-13T09:28:24.568Z,129
2018-01-13T09:29:26.186Z,135
2018-01-13T09:30:27.800Z,135
2018-01-13T09:31:29.407Z,140
2018-01-13T09:32:31.016Z,151
2018-01-13T09:33:32.631Z,168
2018-01-13T09:34:34.245Z,168
2018-01-13T09:35:35.855Z,163
2018-01-13T09:36:37.470Z,157
2018-01-13T09:37:39.081Z,151
2018-01-13T09:38:40.691Z,157
2018-01-13T09:39:42.302Z,157
2018-01-13T09:40:43.917Z,163
2018-01-13T09:41:45.529Z,163
2018-01-13T09:42:47.139Z,157
2018-01-13T09:43:48.758Z,151
2018-01-13T09:44:50.374Z,163
2018-01-13T09:45:51.982Z,168
2018-01-13T09:46:53.595Z,157
2018-01-13T09:47:55.210Z,157
2018-01-13T09:48:56.823Z,163
2018-01-13T09:49:58.433Z,157
2018-01-13T09:51:00.046Z,168
2018-01-13T09:52:01.662Z,174
2018-01-13T09:53:03.273Z,180
2018-01-13T09:54:04.881Z,174
2018-01-13T09:55:06.498Z,163
2018-01-13T09:56:08.107Z,163
2018-01-13T09:57:09.735Z,168
2018-01-13T09:58:11.351Z,163
2018-01-13T09:59:12.988Z,163
2018-01-13T10:00:14.570Z,185
2018-01-13T10:01:16.185Z,213
2018-01-13T10:02:17.793Z,292
2018-01-13T10:03:19.418Z,388
2018-01-13T10:04:21.019Z,196
2018-01-13T10:05:22.634Z,495
2018-01-13T10:06:24.246Z,573
2018-01-13T10:07:25.860Z,573
2018-01-13T10:08:27.466Z,590
2018-01-13T10:09:29.079Z,568
2018-01-13T10:10:30.690Z,579
2018-01-13T10:11:32.303Z,483
2018-01-13T10:12:33.914Z,208
2018-01-13T10:13:35.527Z,371
2018-01-13T10:14:37.135Z,354
2018-01-13T10:15:38.746Z,365
2018-01-13T10:16:40.356Z,382
2018-01-13T10:17:41.968Z,416
2018-01-13T10:18:43.581Z,433
2018-01-13T10:19:45.192Z,461
2018-01-13T10:20:46.810Z,466
2018-01-13T10:21:48.416Z,483
2018-01-13T10:22:50.032Z,461
2018-01-13T10:23:51.639Z,500
2018-01-13T10:24:53.255Z,523
2018-01-13T10:25:54.867Z,489
2018-01-13T10:26:56.483Z,450
2018-01-13T10:27:58.093Z,489
2018-01-13T10:28:59.699Z,624
2018-01-13T10:30:01.316Z,630
2018-01-13T10:31:03.020Z,652
2018-01-13T10:32:04.541Z,691
2018-01-13T10:33:06.152Z,753
2018-01-13T10:34:07.764Z,798
2018-01-13T10:35:09.380Z,742
2018-01-13T10:36:10.994Z,1153
2018-01-13T10:37:12.602Z,776
2018-01-13T10:38:14.221Z,933
2018-01-13T10:39:15.841Z,911
2018-01-13T10:40:17.474Z,725
2018-01-13T10:41:19.072Z,708
2018-01-13T10:42:20.687Z,1006
2018-01-13T10:43:22.296Z,714
2018-01-13T10:44:23.914Z,1125
2018-01-13T10:45:25.529Z,793
2018-01-13T10:46:27.141Z,708
2018-01-13T10:47:28.755Z,753
2018-01-13T10:53:09.538Z,663
2018-01-13T10:54:11.155Z,832
2018-01-13T10:56:02.880Z,832
2018-01-13T10:57:04.498Z,1057
2018-01-13T10:58:56.204Z,900
2018-01-13T10:59:57.820Z,618
2018-01-13T11:01:49.508Z,686
2018-01-13T11:02:51.128Z,551
2018-01-13T11:04:42.840Z,281
2018-01-13T11:05:44.458Z,450
2018-01-13T11:07:36.144Z,528
2018-01-13T11:08:37.757Z,523
2018-01-13T11:10:29.469Z,517
2018-01-13T11:11:31.085Z,579
2018-01-13T11:13:22.774Z,556
2018-01-13T11:14:24.390Z,534
2018-01-13T11:16:16.102Z,500
2018-01-13T11:17:17.709Z,478
2018-01-13T11:19:09.427Z,478
2018-01-13T11:20:11.030Z,500
2018-01-13T11:22:02.726Z,455
2018-01-13T11:23:04.335Z,461
2018-01-13T11:24:56.113Z,635
2018-01-13T11:25:57.704Z,669
2018-01-13T11:27:49.391Z,686
2018-01-13T11:28:51.011Z,888
2018-01-13T11:30:42.725Z,686
2018-01-13T11:31:44.338Z,669
2018-01-13T11:33:36.123Z,562
2018-01-13T11:34:37.736Z,551
2018-01-13T11:36:30.363Z,596
2018-01-13T11:37:31.998Z,618
2018-01-13T11:39:23.711Z,528
2018-01-13T11:40:25.321Z,534
2018-01-13T11:42:17.008Z,545
2018-01-13T11:43:18.628Z,472
2018-01-13T11:45:10.329Z,523
2018-01-13T11:46:11.939Z,613
2018-01-13T11:48:03.628Z,483
2018-01-13T11:49:05.244Z,455
2018-01-13T11:50:56.953Z,500
2018-01-13T11:51:58.559Z,551
2018-01-13T11:53:50.278Z,635
2018-01-13T11:54:51.888Z,562
2018-01-13T11:56:43.576Z,489
2018-01-13T11:57:45.190Z,545
2018-01-13T11:59:36.900Z,506
2018-01-13T12:00:38.513Z,466
2018-01-13T12:02:30.203Z,500
2018-01-13T12:03:31.818Z,562
2018-01-13T12:05:23.522Z,545
2018-01-13T12:06:25.132Z,804
2018-01-13T12:08:16.821Z,759
2018-01-13T12:09:18.437Z,601
2018-01-13T12:11:10.143Z,511
2018-01-13T12:12:11.752Z,427
2018-01-13T12:14:03.463Z,714
2018-01-13T12:15:05.075Z,540
2018-01-13T12:16:56.852Z,511
2018-01-13T12:17:58.468Z,495
2018-01-13T12:19:50.175Z,438
2018-01-13T12:20:51.783Z,450
2018-01-13T12:22:43.469Z,416
2018-01-13T12:23:45.084Z,523
2018-01-13T12:25:36.791Z,444
2018-01-13T12:26:38.404Z,466
2018-01-13T12:28:30.097Z,511
2018-01-13T12:29:31.710Z,551
2018-01-13T12:31:23.429Z,832
2018-01-13T12:32:25.031Z,753
2018-01-13T12:34:16.737Z,556
2018-01-13T12:35:18.353Z,793
2018-01-13T12:37:10.044Z,804
2018-01-13T12:38:11.663Z,590
2018-01-13T12:40:03.375Z,540
2018-01-13T12:41:04.988Z,433
2018-01-13T12:42:56.680Z,725
2018-01-13T12:43:58.296Z,759
2018-01-13T12:45:50.852Z,826
2018-01-13T12:46:52.467Z,815
2018-01-13T12:48:44.157Z,787
2018-01-13T12:49:45.774Z,776
2018-01-13T12:51:37.480Z,725
2018-01-13T12:52:39.098Z,725
2018-01-13T12:54:30.818Z,731
2018-01-13T12:55:32.426Z,686
2018-01-13T12:57:24.138Z,675
2018-01-13T12:58:25.748Z,635
2018-01-13T13:00:17.496Z,596
2018-01-13T13:01:19.112Z,675
2018-01-13T13:03:10.812Z,720
2018-01-13T13:04:12.422Z,545
2018-01-13T13:06:04.137Z,562
2018-01-13T13:07:05.745Z,658
2018-01-13T13:08:57.454Z,466
2018-01-13T13:09:59.066Z,483
2018-01-13T13:11:50.756Z,556
2018-01-13T13:12:52.372Z,523
2018-01-13T13:14:44.078Z,601
2018-01-13T13:15:45.689Z,455
2018-01-13T13:17:37.379Z,568
2018-01-13T13:18:38.996Z,568
2018-01-13T13:20:30.702Z,573
2018-01-13T13:21:32.316Z,562
2018-01-13T13:23:24.009Z,483
2018-01-13T13:24:25.624Z,506
2018-01-13T13:26:17.342Z,579
2018-01-13T13:27:18.956Z,551
2018-01-13T13:29:10.667Z,511
2018-01-13T13:30:12.279Z,511
2018-01-13T13:32:03.972Z,466
2018-01-13T13:33:05.584Z,444
2018-01-13T13:34:57.291Z,438
2018-01-13T13:35:58.903Z,416
2018-01-13T13:37:50.601Z,461
2018-01-13T13:38:52.213Z,450
2018-01-13T13:40:43.922Z,309
2018-01-13T13:41:45.536Z,275
2018-01-13T13:43:45.951Z,253
2018-01-13T13:44:47.459Z,247
2018-01-13T13:46:39.167Z,247
2018-01-13T13:47:40.782Z,360
2018-01-13T13:49:32.492Z,315
2018-01-13T13:50:34.116Z,393
2018-01-13T13:52:25.803Z,405
2018-01-13T13:53:27.423Z,337
2018-01-13T13:55:19.134Z,286
2018-01-13T13:56:20.742Z,303
2018-01-13T13:58:12.439Z,213
2018-01-13T13:59:14.054Z,202
2018-01-13T14:01:28.367Z,213
2018-01-13T14:02:07.380Z,225
2018-01-13T14:03:59.087Z,230
2018-01-13T14:05:00.705Z,213
2018-01-13T14:06:52.399Z,213
2018-01-13T14:07:54.009Z,202
2018-01-13T14:09:45.719Z,208
2018-01-13T14:10:47.331Z,191
2018-01-13T14:12:39.018Z,168
2018-01-13T14:13:40.634Z,180
2018-01-13T14:15:32.338Z,191
2018-01-13T14:16:33.950Z,185
2018-01-13T14:18:25.689Z,174
2018-01-13T14:19:27.250Z,174
2018-01-13T14:21:18.962Z,180
2018-01-13T14:22:20.596Z,174
2018-01-13T14:24:12.282Z,174
2018-01-13T14:25:13.894Z,174
2018-01-13T14:27:05.580Z,185
2018-01-13T14:28:07.196Z,180
2018-01-13T14:29:58.899Z,163
2018-01-13T14:31:00.508Z,163
2018-01-13T14:32:52.198Z,123
2018-01-13T14:33:53.815Z,163
2018-01-13T14:35:45.552Z,174
2018-01-13T14:36:47.199Z,163
2018-01-13T14:38:38.890Z,140
2018-01-13T14:39:40.496Z,140
2018-01-13T14:41:32.206Z,146
2018-01-13T14:42:33.814Z,140
2018-01-13T14:44:25.526Z,140
2018-01-13T14:45:27.139Z,146
2018-01-13T14:47:18.828Z,135
2018-01-13T14:48:20.435Z,129
2018-01-13T14:50:12.146Z,129
2018-01-13T14:51:13.775Z,123
2018-01-13T14:53:05.460Z,151
2018-01-13T14:54:07.074Z,151
2018-01-13T14:55:58.785Z,135
2018-01-13T14:57:00.415Z,123
2018-01-13T14:58:52.126Z,123
2018-01-13T14:59:53.735Z,106
2018-01-13T15:01:45.449Z,106
2018-01-13T15:02:47.053Z,95
2018-01-13T15:04:38.763Z,90
2018-01-13T15:05:40.369Z,84
2018-01-13T15:07:32.910Z,84
2018-01-13T15:08:34.528Z,78
2018-01-13T15:10:26.244Z,67
2018-01-13T15:11:27.850Z,61
2018-01-13T15:13:19.536Z,56
2018-01-13T15:14:21.160Z,50
2018-01-13T15:16:12.882Z,39
2018-01-13T15:17:14.491Z,33
2018-01-13T15:19:06.190Z,33
2018-01-13T15:20:07.798Z,33
2018-01-13T15:21:59.506Z,28
2018-01-13T15:23:01.112Z,28
2018-01-13T15:24:52.822Z,22
2018-01-13T15:25:54.426Z,22
2018-01-13T15:27:46.105Z,22
2018-01-13T15:28:47.726Z,22
2018-01-13T15:30:39.428Z,22
2018-01-13T15:31:41.040Z,16
2018-01-13T15:33:32.724Z,16
2018-01-13T15:34:34.331Z,16
2018-01-13T15:36:26.033Z,16
2018-01-13T15:37:27.638Z,11
2018-01-13T15:39:19.346Z,11
2018-01-13T15:40:20.957Z,11
2018-01-13T15:42:12.638Z,11
2018-01-13T15:43:14.243Z,11
2018-01-13T15:45:05.945Z,5
2018-01-13T15:46:07.565Z,5
2018-01-13T15:47:59.243Z,5
2018-01-13T15:49:00.850Z,5
2018-01-13T15:50:52.547Z,5
2018-01-13T15:51:54.148Z,5
2018-01-13T15:53:45.831Z,5
2018-01-13T15:54:47.454Z,5
2018-01-13T15:56:40.000Z,0
2018-01-13T15:57:41.622Z,0
2018-01-13T15:59:33.336Z,0
2018-01-13T16:00:34.939Z,0
2018-01-13T16:02:26.621Z,0
2018-01-13T16:03:28.225Z,0
2018-01-13T16:05:19.924Z,0
2018-01-13T16:06:21.525Z,0
2018-01-13T16:08:13.231Z,0
2018-01-13T16:09:14.832Z,0
2018-01-13T16:11:06.534Z,0
2018-01-13T16:12:08.138Z,0
2018-01-13T16:13:59.840Z,0
2018-01-13T16:15:01.457Z,0
2018-01-13T16:16:53.153Z,0
2018-01-13T16:17:54.756Z,0
2018-01-13T16:19:46.453Z,0
2018-01-13T16:20:48.059Z,0
2018-01-13T16:21:49.660Z,0
2018-01-13T16:22:51.270Z,0
2018-01-13T16:23:52.873Z,0
2018-01-13T16:24:54.482Z,0
2018-01-13T16:25:56.108Z,0
2018-01-13T16:26:57.718Z,0
2018-01-13T16:27:59.319Z,0